Terminal Aerodrome Forecast
Issued by NWS Austin/San Antonio, TX

Home | Current Version | Previous Version | Text Only | Print | Product List | Glossary On
Versions: 1 2 3 4 5 6 7 8 9 10 11 12 13 14 15 16 17 18 19 20 21 22 23 24
000
FTUS44 KEWX 200105 AAA
TAFSAT
TAF AMD
KSAT 200105Z 2001/2106 14015G25KT P6SM VCSH BKN025
     FM200200 15012KT 5SM BR OVC015
     FM200900 16012KT 3SM -RA BR VCTS OVC009CB
     FM201500 16010KT 2SM BR OVC007
     FM201900 17013KT P6SM VCSH OVC015
     FM202200 16009KT 4SM -SHRA OVC050=

USA.gov is the U.S. government's official web portal to all federal, state and local government web resources and services.